createdAt,value
2018-05-11T00:00:46.670Z,65.22
2018-05-11T00:01:53.502Z,65.22
2018-05-11T00:03:00.283Z,65.18
2018-05-11T00:04:07.278Z,65.27
2018-05-11T00:05:14.039Z,65.29
2018-05-11T00:06:20.827Z,65.30
2018-05-11T00:07:27.714Z,65.33
2018-05-11T00:08:34.574Z,65.40
2018-05-11T00:09:41.350Z,65.39
2018-05-11T00:10:48.118Z,65.44
2018-05-11T00:11:54.894Z,65.48
2018-05-11T00:13:01.712Z,65.46
2018-05-11T00:14:08.532Z,65.47
2018-05-11T00:15:15.374Z,65.45
2018-05-11T00:16:22.290Z,65.52
2018-05-11T00:17:29.144Z,65.62
2018-05-11T00:18:36.128Z,65.70
2018-05-11T00:19:43.026Z,65.70
2018-05-11T00:20:49.913Z,65.75
2018-05-11T00:21:56.758Z,65.72
2018-05-11T00:23:03.555Z,65.78
2018-05-11T00:24:10.351Z,65.78
2018-05-11T00:25:17.126Z,65.71
2018-05-11T00:26:23.960Z,65.75
2018-05-11T00:27:30.794Z,65.79
2018-05-11T00:28:37.583Z,65.73
2018-05-11T00:29:44.619Z,65.71
2018-05-11T00:30:51.431Z,65.86
2018-05-11T00:31:58.232Z,65.90
2018-05-11T00:33:05.012Z,65.84
2018-05-11T00:34:11.799Z,65.88
2018-05-11T00:35:18.606Z,65.87
2018-05-11T00:36:25.430Z,65.86
2018-05-11T00:37:32.310Z,65.88
2018-05-11T00:38:39.205Z,65.94
2018-05-11T00:39:46.027Z,65.88
2018-05-11T00:40:52.843Z,65.86
2018-05-11T00:41:59.685Z,65.83
2018-05-11T00:43:06.512Z,65.84
2018-05-11T00:44:13.286Z,65.98
2018-05-11T00:45:20.091Z,66.05
2018-05-11T00:46:26.902Z,65.94
2018-05-11T00:47:33.705Z,65.94
2018-05-11T00:48:40.534Z,65.91
2018-05-11T00:49:47.312Z,66.01
2018-05-11T00:50:54.119Z,66.11
2018-05-11T00:52:00.978Z,66.18
2018-05-11T00:53:07.948Z,66.22
2018-05-11T00:54:14.747Z,66.25
2018-05-11T00:55:21.516Z,66.22
2018-05-11T00:56:28.391Z,66.24
2018-05-11T00:57:35.205Z,66.28
2018-05-11T00:58:42.012Z,66.41
2018-05-11T00:59:48.815Z,66.45
2018-05-11T01:00:55.627Z,66.53
2018-05-11T01:02:02.455Z,66.53
2018-05-11T01:03:09.367Z,66.59
2018-05-11T01:04:16.278Z,66.57
2018-05-11T01:05:23.142Z,66.44
2018-05-11T01:06:29.940Z,66.48
2018-05-11T01:07:36.754Z,66.57
2018-05-11T01:08:43.547Z,66.59
2018-05-11T01:09:50.419Z,66.55
2018-05-11T01:10:57.207Z,66.53
2018-05-11T01:12:04.015Z,66.56
2018-05-11T01:13:10.783Z,66.63
2018-05-11T01:14:17.605Z,66.69
2018-05-11T01:15:24.402Z,66.69
2018-05-11T01:16:31.183Z,66.76
2018-05-11T01:17:37.987Z,66.76
2018-05-11T01:18:44.840Z,66.75
2018-05-11T01:19:51.600Z,66.75
2018-05-11T01:20:58.627Z,66.78
2018-05-11T01:22:05.422Z,66.81
2018-05-11T01:23:12.211Z,66.84
2018-05-11T01:24:19.029Z,66.85
2018-05-11T01:25:25.823Z,66.87
2018-05-11T01:26:32.619Z,66.87
2018-05-11T01:27:39.503Z,66.94
2018-05-11T01:28:46.295Z,66.93
2018-05-11T01:29:53.062Z,66.94
2018-05-11T01:30:59.931Z,66.92
2018-05-11T01:32:06.780Z,66.82
2018-05-11T01:33:13.531Z,66.89
2018-05-11T01:34:20.321Z,66.98
2018-05-11T01:35:27.117Z,67.05
2018-05-11T01:36:33.944Z,67.09
2018-05-11T01:37:40.785Z,67.15
2018-05-11T01:38:47.582Z,67.21
2018-05-11T01:39:54.432Z,67.22
2018-05-11T01:41:01.200Z,67.25
2018-05-11T01:42:08.058Z,67.24
2018-05-11T01:43:14.835Z,67.24
2018-05-11T01:44:21.631Z,67.19
2018-05-11T01:45:28.401Z,67.21
2018-05-11T01:46:35.217Z,67.23
2018-05-11T01:47:42.062Z,67.27
2018-05-11T01:48:48.846Z,67.31
2018-05-11T01:49:55.652Z,67.26
2018-05-11T01:51:02.467Z,67.30
2018-05-11T01:52:09.374Z,67.34
2018-05-11T01:53:16.264Z,67.37
2018-05-11T01:54:23.030Z,67.41
2018-05-11T01:55:29.819Z,67.48
2018-05-11T01:56:36.689Z,67.46
2018-05-11T01:57:43.521Z,67.46
2018-05-11T01:58:50.326Z,67.48
2018-05-11T01:59:57.137Z,67.47
2018-05-11T02:01:03.969Z,67.44
2018-05-11T02:02:10.787Z,67.41
2018-05-11T02:03:17.671Z,67.41
2018-05-11T02:04:24.459Z,67.35
2018-05-11T02:05:31.333Z,67.32
2018-05-11T02:06:38.111Z,67.29
2018-05-11T02:07:44.905Z,67.26
2018-05-11T02:08:51.774Z,67.22
2018-05-11T02:09:58.567Z,67.17
2018-05-11T02:11:05.427Z,67.13
2018-05-11T02:12:12.223Z,67.05
2018-05-11T02:13:19.015Z,67.00
2018-05-11T02:14:25.869Z,66.95
2018-05-11T02:15:32.719Z,66.85
2018-05-11T02:16:39.541Z,66.88
2018-05-11T02:17:46.452Z,66.78
2018-05-11T02:18:53.230Z,66.70
2018-05-11T02:20:00.016Z,66.65
2018-05-11T02:21:06.921Z,66.55
2018-05-11T02:22:13.750Z,66.44
2018-05-11T02:23:20.927Z,66.48
2018-05-11T02:24:27.801Z,66.43
2018-05-11T02:25:34.658Z,66.37
2018-05-11T02:26:41.457Z,66.27
2018-05-11T02:27:48.251Z,66.24
2018-05-11T02:28:55.056Z,66.22
2018-05-11T02:30:01.823Z,66.13
2018-05-11T02:31:08.650Z,66.10
2018-05-11T02:32:15.532Z,66.01
2018-05-11T02:33:22.411Z,65.94
2018-05-11T02:34:29.168Z,65.96
2018-05-11T02:35:35.985Z,65.99
2018-05-11T02:36:42.823Z,65.92
2018-05-11T02:37:49.758Z,65.83
2018-05-11T02:38:56.631Z,65.85
2018-05-11T02:40:03.526Z,65.75
2018-05-11T02:41:10.371Z,65.72
2018-05-11T02:42:17.218Z,65.66
2018-05-11T02:43:23.994Z,65.56
2018-05-11T02:44:30.795Z,65.58
2018-05-11T02:45:37.595Z,65.49
2018-05-11T02:46:44.404Z,65.47
2018-05-11T02:47:51.314Z,65.43
2018-05-11T02:48:58.092Z,65.47
2018-05-11T02:50:04.954Z,65.47
2018-05-11T02:51:11.793Z,65.51
2018-05-11T02:52:18.616Z,65.52
2018-05-11T02:53:25.415Z,65.41
2018-05-11T02:54:32.195Z,65.38
2018-05-11T02:55:38.995Z,65.31
2018-05-11T02:56:45.817Z,65.37
2018-05-11T02:57:52.634Z,65.33
2018-05-11T02:58:59.441Z,65.29
2018-05-11T03:00:06.227Z,65.26
2018-05-11T03:01:13.130Z,65.31
2018-05-11T03:02:20.015Z,65.16
2018-05-11T03:03:26.814Z,65.15
2018-05-11T03:04:33.591Z,65.09
2018-05-11T03:05:40.387Z,65.10
2018-05-11T03:06:47.224Z,65.06
2018-05-11T03:07:54.143Z,65.16
2018-05-11T03:09:00.999Z,65.09
2018-05-11T03:10:08.107Z,65.07
2018-05-11T03:11:14.895Z,65.09
2018-05-11T03:12:21.715Z,65.11
2018-05-11T03:13:28.523Z,65.13
2018-05-11T03:14:35.311Z,65.16
2018-05-11T03:15:42.142Z,65.12
2018-05-11T03:16:48.931Z,65.12
2018-05-11T03:17:55.870Z,65.17
2018-05-11T03:19:02.648Z,65.13
2018-05-11T03:20:09.548Z,65.13
2018-05-11T03:21:16.319Z,65.11
2018-05-11T03:22:23.112Z,65.10
2018-05-11T03:23:29.944Z,65.10
2018-05-11T03:24:36.842Z,65.11
2018-05-11T03:25:43.653Z,65.13
2018-05-11T03:26:50.490Z,65.06
2018-05-11T03:27:57.337Z,65.06
2018-05-11T03:29:04.119Z,65.09
2018-05-11T03:30:10.930Z,65.07
2018-05-11T03:31:17.788Z,65.03
2018-05-11T03:32:24.695Z,65.05
2018-05-11T03:33:31.507Z,65.11
2018-05-11T03:34:38.343Z,65.13
2018-05-11T03:35:45.154Z,65.08
2018-05-11T03:36:51.949Z,65.06
2018-05-11T03:37:58.878Z,65.06
2018-05-11T03:39:05.664Z,65.14
2018-05-11T03:40:12.538Z,65.17
2018-05-11T03:41:19.336Z,65.19
2018-05-11T03:42:26.191Z,65.22
2018-05-11T03:43:33.044Z,65.28
2018-05-11T03:44:39.868Z,65.31
2018-05-11T03:45:46.668Z,65.30
2018-05-11T03:46:53.480Z,65.32
2018-05-11T03:48:00.311Z,65.32
2018-05-11T03:49:07.248Z,65.38
2018-05-11T03:50:14.100Z,65.41
2018-05-11T03:51:20.930Z,65.49
2018-05-11T03:52:27.787Z,65.58
2018-05-11T03:53:34.631Z,65.61
2018-05-11T03:54:41.516Z,65.67
2018-05-11T03:55:48.335Z,65.72
2018-05-11T03:56:55.255Z,65.80
2018-05-11T03:58:02.108Z,65.80
2018-05-11T03:59:08.987Z,65.85
2018-05-11T04:00:15.791Z,65.83
2018-05-11T04:01:22.615Z,65.81
2018-05-11T04:02:29.542Z,65.79
2018-05-11T04:03:36.533Z,65.76
2018-05-11T04:04:44.743Z,65.88
2018-05-11T04:05:51.651Z,65.92
2018-05-11T04:06:58.304Z,65.95
2018-05-11T04:09:15.164Z,66.04
2018-05-11T04:10:21.982Z,66.16
2018-05-11T04:11:29.914Z,66.24
2018-05-11T04:12:35.750Z,66.31
2018-05-11T04:13:42.582Z,66.34
2018-05-11T04:14:49.475Z,66.36
2018-05-11T04:15:56.339Z,66.43
2018-05-11T04:17:03.254Z,66.47
2018-05-11T04:18:10.095Z,66.51
2018-05-11T04:19:16.898Z,66.59
2018-05-11T04:20:23.700Z,66.64
2018-05-11T04:21:30.551Z,66.70
2018-05-11T04:22:37.478Z,66.74
2018-05-11T04:23:44.313Z,66.74
2018-05-11T04:24:51.111Z,66.77
2018-05-11T04:25:57.889Z,66.83
2018-05-11T04:27:04.683Z,66.88
2018-05-11T04:28:11.516Z,66.92
2018-05-11T04:29:18.353Z,66.98
2018-05-11T04:30:25.201Z,67.03
2018-05-11T04:31:32.096Z,67.08
2018-05-11T04:32:38.872Z,67.09
2018-05-11T04:33:45.702Z,67.13
2018-05-11T04:34:52.639Z,67.13
2018-05-11T04:35:59.451Z,67.23
2018-05-11T04:37:06.318Z,67.33
2018-05-11T04:38:13.153Z,67.35
2018-05-11T04:39:19.938Z,67.45
2018-05-11T04:40:26.779Z,67.51
2018-05-11T04:41:33.744Z,67.57
2018-05-11T04:42:40.668Z,67.62
2018-05-11T04:43:47.750Z,67.69
2018-05-11T04:44:54.582Z,67.64
2018-05-11T04:46:01.413Z,67.61
2018-05-11T04:47:08.309Z,67.65
2018-05-11T04:48:15.262Z,67.71
2018-05-11T04:49:22.095Z,67.75
2018-05-11T04:50:28.996Z,67.83
2018-05-11T04:51:35.928Z,67.88
2018-05-11T04:52:42.904Z,67.98
2018-05-11T04:53:49.807Z,68.06
2018-05-11T04:54:56.611Z,68.06
2018-05-11T04:56:03.467Z,68.03
2018-05-11T04:57:10.398Z,68.09
2018-05-11T04:58:17.259Z,68.19
2018-05-11T04:59:24.154Z,68.24
2018-05-11T05:00:31.040Z,68.34
2018-05-11T05:01:37.958Z,68.38
2018-05-11T05:02:44.792Z,68.41
2018-05-11T05:03:51.723Z,68.48
2018-05-11T05:04:58.595Z,68.46
2018-05-11T05:06:05.497Z,68.50
2018-05-11T05:07:12.347Z,68.59
2018-05-11T05:08:19.324Z,68.68
2018-05-11T05:09:26.142Z,68.76
2018-05-11T05:10:32.931Z,68.75
2018-05-11T05:11:39.710Z,68.79
2018-05-11T05:12:46.492Z,68.86
2018-05-11T05:13:53.296Z,68.95
2018-05-11T05:15:00.079Z,68.96
2018-05-11T05:16:06.888Z,68.99
2018-05-11T05:17:13.669Z,69.06
2018-05-11T05:18:20.506Z,69.12
2018-05-11T05:19:27.372Z,69.14
2018-05-11T05:20:34.258Z,69.20
2018-05-11T05:21:41.105Z,69.20
2018-05-11T05:22:48.035Z,69.23
2018-05-11T05:23:54.885Z,69.28
2018-05-11T05:25:01.810Z,69.36
2018-05-11T05:26:08.679Z,69.46
2018-05-11T05:27:15.589Z,69.51
2018-05-11T05:28:22.463Z,69.50
2018-05-11T05:29:29.359Z,69.58
2018-05-11T05:30:36.170Z,69.69
2018-05-11T05:31:42.996Z,69.68
2018-05-11T05:32:49.924Z,69.70
2018-05-11T05:33:56.803Z,69.73
2018-05-11T05:35:03.660Z,69.83
2018-05-11T05:36:10.542Z,69.89
2018-05-11T05:37:17.401Z,69.95
2018-05-11T05:38:24.242Z,70.01
2018-05-11T05:39:31.064Z,70.11
2018-05-11T05:40:37.926Z,70.24
2018-05-11T05:41:45.062Z,70.31
2018-05-11T05:42:51.491Z,70.39
2018-05-11T05:43:58.403Z,70.44
2018-05-11T05:45:05.261Z,70.55
2018-05-11T05:46:12.048Z,70.58
2018-05-11T05:47:18.857Z,70.68
2018-05-11T05:48:25.703Z,70.74
2018-05-11T05:49:32.488Z,70.84
2018-05-11T05:50:39.313Z,70.86
2018-05-11T05:51:46.115Z,70.88
2018-05-11T05:52:52.947Z,70.98
2018-05-11T05:53:59.751Z,71.04
2018-05-11T05:55:06.568Z,71.14
2018-05-11T05:56:13.389Z,71.13
2018-05-11T05:57:20.363Z,71.19
2018-05-11T05:58:27.343Z,71.29
2018-05-11T05:59:34.125Z,71.33
2018-05-11T06:00:41.033Z,71.31
2018-05-11T06:01:47.906Z,71.48
2018-05-11T06:02:54.770Z,71.51
2018-05-11T06:04:01.593Z,71.49
2018-05-11T06:05:08.738Z,71.53
2018-05-11T06:06:15.529Z,71.64
2018-05-11T06:07:22.354Z,71.75
2018-05-11T06:08:29.235Z,71.78
2018-05-11T06:09:36.018Z,71.79
2018-05-11T06:10:42.811Z,71.87
2018-05-11T06:11:49.615Z,71.83
2018-05-11T06:12:56.447Z,71.85
2018-05-11T06:14:03.378Z,71.84
2018-05-11T06:15:10.200Z,71.87
2018-05-11T06:16:16.965Z,71.91
2018-05-11T06:17:23.765Z,71.93
2018-05-11T06:18:30.572Z,72.05
2018-05-11T06:19:37.360Z,72.17
2018-05-11T06:20:44.261Z,72.15
2018-05-11T06:21:51.133Z,72.14
2018-05-11T06:22:57.991Z,72.16
2018-05-11T06:24:04.782Z,72.10
2018-05-11T06:25:11.574Z,72.16
2018-05-11T06:26:18.395Z,72.15
2018-05-11T06:27:25.187Z,72.16
2018-05-11T06:28:32.047Z,72.20
2018-05-11T06:29:38.832Z,72.05
2018-05-11T06:30:45.610Z,71.99
2018-05-11T06:31:52.407Z,72.06
2018-05-11T06:32:59.233Z,72.21
2018-05-11T06:34:06.021Z,72.35
2018-05-11T06:35:12.881Z,72.28
2018-05-11T06:36:19.663Z,72.26
2018-05-11T06:37:26.438Z,72.33
2018-05-11T06:38:33.301Z,72.32
2018-05-11T06:39:40.199Z,72.34
2018-05-11T06:40:47.130Z,72.36
2018-05-11T06:41:53.950Z,72.37
2018-05-11T06:43:04.960Z,72.38
2018-05-11T06:44:07.944Z,72.29
2018-05-11T06:45:14.772Z,72.22
2018-05-11T06:46:21.540Z,72.32
2018-05-11T06:47:28.379Z,72.41
2018-05-11T06:48:35.251Z,72.37
2018-05-11T06:49:42.006Z,72.47
2018-05-11T06:50:48.775Z,72.54
2018-05-11T06:51:55.683Z,72.57
2018-05-11T06:53:02.585Z,72.49
2018-05-11T06:54:09.534Z,72.49
2018-05-11T06:55:16.377Z,72.51
2018-05-11T06:56:23.250Z,72.48
2018-05-11T06:57:30.038Z,72.54
2018-05-11T06:58:36.839Z,72.53
2018-05-11T06:59:43.630Z,72.56
2018-05-11T07:00:50.538Z,72.54
2018-05-11T07:01:57.423Z,72.59
2018-05-11T07:03:04.214Z,72.52
2018-05-11T07:04:11.031Z,72.51
2018-05-11T07:05:17.926Z,72.50
2018-05-11T07:06:24.701Z,72.55
2018-05-11T07:07:31.476Z,72.57
2018-05-11T07:08:38.302Z,72.62
2018-05-11T07:09:45.104Z,72.52
2018-05-11T07:10:51.895Z,72.49
2018-05-11T07:11:59.032Z,72.58
2018-05-11T07:13:05.846Z,72.51
2018-05-11T07:14:12.635Z,72.61
2018-05-11T07:15:19.632Z,72.53
2018-05-11T07:16:26.355Z,72.58
2018-05-11T07:17:33.181Z,72.68
2018-05-11T07:18:40.047Z,72.79
2018-05-11T07:19:46.831Z,72.78
2018-05-11T07:20:53.646Z,72.67
2018-05-11T07:22:00.488Z,72.81
2018-05-11T07:23:07.359Z,72.87
2018-05-11T07:24:14.195Z,72.94
2018-05-11T07:25:20.980Z,73.05
2018-05-11T07:26:27.782Z,72.93
2018-05-11T07:27:34.613Z,72.78
2018-05-11T07:28:41.479Z,72.74
2018-05-11T07:29:48.293Z,72.70
2018-05-11T07:30:55.111Z,72.79
2018-05-11T07:32:01.955Z,72.96
2018-05-11T07:33:08.851Z,72.73
2018-05-11T07:34:15.647Z,72.73
2018-05-11T07:35:22.723Z,72.73
2018-05-11T07:36:29.625Z,72.65
2018-05-11T07:37:37.099Z,72.73
2018-05-11T07:38:43.537Z,72.62
2018-05-11T07:39:50.354Z,72.75
2018-05-11T07:40:57.299Z,72.79
2018-05-11T07:42:04.077Z,72.77
2018-05-11T07:43:11.084Z,72.70
2018-05-11T07:44:17.854Z,72.72
2018-05-11T07:45:24.683Z,72.70
2018-05-11T07:46:31.521Z,72.76
2018-05-11T07:47:38.316Z,72.84
2018-05-11T07:48:45.119Z,72.95
2018-05-11T07:49:51.947Z,72.79
2018-05-11T07:50:58.779Z,72.71
2018-05-11T07:52:05.476Z,72.63
2018-05-11T07:53:12.355Z,72.53
2018-05-11T07:54:19.194Z,72.38
2018-05-11T07:55:25.968Z,72.33
2018-05-11T07:56:32.756Z,72.36
2018-05-11T07:57:39.541Z,72.33
2018-05-11T07:58:46.359Z,72.31
2018-05-11T07:59:53.194Z,72.29
2018-05-11T08:01:00.342Z,72.28
2018-05-11T08:02:07.228Z,72.22
2018-05-11T08:03:14.119Z,72.21
2018-05-11T08:04:20.984Z,72.13
2018-05-11T08:05:27.769Z,72.08
2018-05-11T08:06:34.562Z,72.00
2018-05-11T08:07:41.365Z,72.15
2018-05-11T08:08:48.138Z,72.32
2018-05-11T08:09:54.941Z,72.35
2018-05-11T08:11:01.748Z,72.40
2018-05-11T08:12:08.512Z,72.55
2018-05-11T08:13:15.346Z,72.69
2018-05-11T08:14:22.188Z,72.70
2018-05-11T08:15:28.897Z,72.69
2018-05-11T08:16:35.794Z,72.50
2018-05-11T08:17:42.684Z,72.44
2018-05-11T08:18:49.554Z,72.54
2018-05-11T08:19:56.348Z,72.51
2018-05-11T08:21:03.110Z,72.50
2018-05-11T08:22:09.989Z,72.64
2018-05-11T08:23:16.778Z,72.85
2018-05-11T08:24:23.591Z,72.88
2018-05-11T08:25:30.435Z,72.79
2018-05-11T08:26:37.272Z,72.89
2018-05-11T08:27:44.214Z,72.67
2018-05-11T08:28:50.977Z,72.49
2018-05-11T08:29:57.763Z,72.51
2018-05-11T08:31:04.596Z,72.63
2018-05-11T08:32:11.747Z,73.05
2018-05-11T08:33:18.534Z,72.88
2018-05-11T08:34:26.030Z,72.61
2018-05-11T08:35:32.551Z,72.68
2018-05-11T08:36:39.350Z,72.63
2018-05-11T08:37:46.327Z,72.71
2018-05-11T08:38:53.127Z,72.72
2018-05-11T08:39:59.904Z,72.68
2018-05-11T08:41:06.851Z,72.70
2018-05-11T08:42:13.982Z,72.68
2018-05-11T08:43:20.755Z,72.58
2018-05-11T08:44:27.591Z,72.45
2018-05-11T08:45:34.748Z,72.46
2018-05-11T08:46:41.647Z,72.37
2018-05-11T08:47:48.319Z,72.25
2018-05-11T08:48:55.170Z,72.14
2018-05-11T08:50:02.078Z,72.12
2018-05-11T08:51:08.894Z,72.05
2018-05-11T08:52:15.667Z,72.15
2018-05-11T08:53:22.462Z,72.11
2018-05-11T08:54:29.287Z,72.24
2018-05-11T08:55:36.038Z,72.11
2018-05-11T08:56:42.940Z,72.10
2018-05-11T08:57:49.791Z,71.92
2018-05-11T08:58:56.632Z,71.88
2018-05-11T09:00:03.393Z,71.88
2018-05-11T09:01:10.199Z,72.04
2018-05-11T09:02:17.047Z,71.92
2018-05-11T09:03:23.806Z,71.43
2018-05-11T09:04:30.584Z,71.33
2018-05-11T09:05:37.458Z,71.01
2018-05-11T09:06:44.219Z,70.79
2018-05-11T09:07:51.044Z,70.81
2018-05-11T09:08:57.873Z,70.82
2018-05-11T09:10:04.626Z,70.86
2018-05-11T09:11:11.426Z,70.62
2018-05-11T09:12:18.277Z,70.68
2018-05-11T09:13:25.057Z,70.54
2018-05-11T09:14:31.854Z,70.51
2018-05-11T09:15:40.106Z,70.82
2018-05-11T09:16:45.450Z,70.64
2018-05-11T09:17:52.254Z,70.45
2018-05-11T09:18:59.477Z,70.30
2018-05-11T09:20:06.281Z,70.07
2018-05-11T09:21:13.076Z,70.05
2018-05-11T09:22:19.843Z,70.02
2018-05-11T09:23:26.650Z,70.14
2018-05-11T09:24:33.479Z,69.91
2018-05-11T09:25:41.669Z,69.76
2018-05-11T09:26:47.047Z,69.57
2018-05-11T09:27:53.911Z,69.59
2018-05-11T09:29:01.167Z,69.32
2018-05-11T09:30:07.992Z,69.24
2018-05-11T09:31:14.856Z,69.30
2018-05-11T09:32:21.596Z,69.24
2018-05-11T09:33:28.379Z,69.24
2018-05-11T09:34:35.138Z,69.00
2018-05-11T09:35:41.859Z,68.84
2018-05-11T09:36:48.598Z,68.93
2018-05-11T09:37:55.333Z,68.98
2018-05-11T09:39:02.080Z,68.92
2018-05-11T09:40:08.967Z,68.75
2018-05-11T09:41:15.842Z,68.50
2018-05-11T09:42:22.570Z,68.49
2018-05-11T09:43:29.314Z,68.50
2018-05-11T09:44:36.067Z,68.45
2018-05-11T09:45:43.149Z,68.26
2018-05-11T09:46:49.914Z,68.20
2018-05-11T09:47:56.707Z,67.99
2018-05-11T09:49:03.510Z,68.15
2018-05-11T09:50:10.312Z,68.06
2018-05-11T09:51:17.098Z,67.84
2018-05-11T09:52:23.851Z,67.66
2018-05-11T09:53:30.611Z,67.75
2018-05-11T09:54:37.351Z,67.60
2018-05-11T09:55:44.114Z,67.28
2018-05-11T09:56:50.922Z,67.03
2018-05-11T09:57:57.683Z,66.82
2018-05-11T09:59:04.431Z,66.77
2018-05-11T10:00:11.227Z,66.73
2018-05-11T10:01:18.069Z,66.46
2018-05-11T10:02:24.844Z,66.25
2018-05-11T10:03:31.621Z,66.08
2018-05-11T10:04:38.427Z,66.02
2018-05-11T10:05:45.474Z,66.01
2018-05-11T10:06:52.314Z,65.99
2018-05-11T10:07:59.159Z,66.13
2018-05-11T10:09:05.930Z,66.00
2018-05-11T10:10:13.010Z,65.99
2018-05-11T10:11:19.789Z,66.00
2018-05-11T10:12:26.788Z,65.85
2018-05-11T10:13:33.727Z,65.71
2018-05-11T10:14:40.667Z,65.64
2018-05-11T10:15:47.523Z,65.43
2018-05-11T10:16:54.331Z,65.44
2018-05-11T10:18:01.192Z,65.50
2018-05-11T10:19:08.001Z,65.54
2018-05-11T10:20:14.851Z,65.45
2018-05-11T10:21:21.768Z,65.17
2018-05-11T10:22:28.561Z,64.73
2018-05-11T10:23:35.599Z,64.58
2018-05-11T10:24:42.439Z,64.34
2018-05-11T10:25:49.497Z,64.17
2018-05-11T10:26:56.286Z,63.95
2018-05-11T10:28:03.056Z,63.84
2018-05-11T10:29:09.911Z,63.95
2018-05-11T10:30:16.730Z,64.18
2018-05-11T10:31:23.517Z,63.84
2018-05-11T10:32:30.468Z,63.80
2018-05-11T10:33:37.214Z,63.75
2018-05-11T10:34:44.022Z,63.87
2018-05-11T10:35:50.995Z,63.67
2018-05-11T10:36:57.863Z,63.78
2018-05-11T10:38:04.631Z,63.64
2018-05-11T10:39:11.419Z,63.58
2018-05-11T10:40:18.243Z,63.31
2018-05-11T10:41:25.155Z,63.48
2018-05-11T10:42:31.962Z,63.46
2018-05-11T10:43:38.787Z,63.58
2018-05-11T10:44:45.671Z,63.50
2018-05-11T10:45:52.447Z,63.34
2018-05-11T10:46:59.372Z,62.95
2018-05-11T10:48:06.242Z,63.02
2018-05-11T10:49:13.120Z,62.86
2018-05-11T10:50:19.903Z,62.77
2018-05-11T10:51:26.713Z,62.75
2018-05-11T10:52:33.535Z,62.38
2018-05-11T10:53:40.334Z,62.32
2018-05-11T10:54:47.160Z,62.42
2018-05-11T10:55:54.033Z,62.42
2018-05-11T10:57:00.816Z,62.46
2018-05-11T10:58:07.719Z,62.13
2018-05-11T10:59:14.548Z,61.96
2018-05-11T11:00:21.512Z,61.90
2018-05-11T11:01:28.347Z,61.87
2018-05-11T11:02:35.246Z,61.82
2018-05-11T11:03:42.031Z,61.97
2018-05-11T11:04:48.798Z,61.79
2018-05-11T11:05:55.555Z,61.53
2018-05-11T11:07:02.306Z,61.33
2018-05-11T11:08:09.055Z,61.39
2018-05-11T11:09:15.830Z,61.27
2018-05-11T11:10:22.591Z,61.14
2018-05-11T11:11:29.384Z,61.05
2018-05-11T11:12:36.168Z,61.19
2018-05-11T11:13:42.914Z,60.82
2018-05-11T11:14:49.800Z,60.74
2018-05-11T11:15:56.587Z,61.01
2018-05-11T11:17:03.362Z,60.88
2018-05-11T11:18:10.165Z,60.94
2018-05-11T11:19:16.952Z,61.02
2018-05-11T11:20:23.709Z,61.12
2018-05-11T11:21:30.470Z,60.97
2018-05-11T11:22:37.230Z,60.29
2018-05-11T11:23:43.960Z,60.64
2018-05-11T11:24:50.755Z,60.54
2018-05-11T11:25:57.517Z,60.53
2018-05-11T11:27:04.292Z,60.48
2018-05-11T11:28:11.049Z,60.20
2018-05-11T11:29:17.786Z,60.19
2018-05-11T11:30:24.555Z,60.21
2018-05-11T11:31:31.329Z,60.23
2018-05-11T11:32:38.058Z,59.54
2018-05-11T11:33:44.804Z,59.60
2018-05-11T11:34:51.542Z,59.35
2018-05-11T11:35:58.719Z,59.09
2018-05-11T11:37:05.501Z,59.00
2018-05-11T11:38:12.223Z,58.86
2018-05-11T11:39:19.032Z,58.90
2018-05-11T11:40:25.790Z,58.92
2018-05-11T11:41:32.556Z,58.63
2018-05-11T11:42:40.020Z,58.44
2018-05-11T11:43:46.411Z,58.17
2018-05-11T11:44:53.161Z,58.17
2018-05-11T11:45:59.907Z,57.68
2018-05-11T11:47:06.735Z,57.57
2018-05-11T11:48:13.852Z,57.79
2018-05-11T11:49:20.758Z,57.62
2018-05-11T11:50:27.536Z,57.33
2018-05-11T11:51:34.324Z,57.14
2018-05-11T11:52:41.142Z,56.87
2018-05-11T11:53:47.838Z,56.96
2018-05-11T11:54:54.602Z,56.67
2018-05-11T11:56:01.330Z,56.39
2018-05-11T11:57:08.093Z,56.64
2018-05-11T11:58:14.854Z,56.43
2018-05-11T11:59:21.931Z,56.96
2018-05-11T12:00:28.683Z,56.81
2018-05-11T12:01:35.637Z,56.88
2018-05-11T12:02:42.586Z,56.54
2018-05-11T12:03:49.302Z,56.80
2018-05-11T12:04:56.062Z,56.84
2018-05-11T12:06:02.811Z,56.71
2018-05-11T12:07:09.551Z,56.65
2018-05-11T12:08:16.354Z,56.61
2018-05-11T12:09:23.122Z,56.58
2018-05-11T12:10:29.870Z,56.27
2018-05-11T12:11:36.606Z,56.09
2018-05-11T12:12:43.425Z,56.48
2018-05-11T12:13:50.168Z,56.54
2018-05-11T12:14:56.943Z,56.38
2018-05-11T12:16:03.661Z,56.42
2018-05-11T12:17:10.486Z,56.43
2018-05-11T12:18:17.236Z,55.91
2018-05-11T12:19:23.934Z,55.50
2018-05-11T12:20:30.667Z,55.13
2018-05-11T12:21:37.430Z,55.36
2018-05-11T12:22:44.161Z,55.03
2018-05-11T12:23:50.845Z,54.88
2018-05-11T12:24:57.579Z,55.27
2018-05-11T12:26:04.691Z,55.23
2018-05-11T12:27:11.550Z,55.08
2018-05-11T12:28:18.336Z,54.88
2018-05-11T12:29:25.144Z,54.24
2018-05-11T12:30:31.978Z,54.25
2018-05-11T12:31:38.729Z,54.38
2018-05-11T12:32:45.477Z,54.36
2018-05-11T12:33:52.230Z,54.45
2018-05-11T12:34:59.133Z,54.24
2018-05-11T12:36:05.863Z,53.97
2018-05-11T12:37:12.602Z,54.09
2018-05-11T12:38:19.338Z,54.08
2018-05-11T12:39:26.125Z,53.81
2018-05-11T12:40:33.004Z,53.66
2018-05-11T12:41:39.716Z,53.82
2018-05-11T12:42:46.766Z,53.80
2018-05-11T12:43:53.512Z,53.79
2018-05-11T12:45:00.311Z,53.81
2018-05-11T12:46:07.038Z,53.88
2018-05-11T12:47:13.815Z,53.54
2018-05-11T12:48:20.597Z,53.35
2018-05-11T12:49:27.613Z,53.13
2018-05-11T12:50:34.356Z,53.08
2018-05-11T12:51:41.130Z,52.75
2018-05-11T12:52:47.944Z,52.68
2018-05-11T12:53:54.698Z,52.74
2018-05-11T12:55:01.439Z,52.64
2018-05-11T12:56:08.466Z,52.69
2018-05-11T12:57:15.390Z,52.45
2018-05-11T12:58:22.150Z,52.36
2018-05-11T12:59:29.145Z,52.59
2018-05-11T13:00:35.914Z,52.39
2018-05-11T13:01:42.661Z,52.11
2018-05-11T13:02:49.374Z,51.76
2018-05-11T13:03:56.172Z,51.37
2018-05-11T13:05:02.878Z,51.28
2018-05-11T13:06:09.625Z,51.27
2018-05-11T13:07:16.504Z,51.58
2018-05-11T13:08:23.254Z,51.61
2018-05-11T13:09:29.997Z,51.83
2018-05-11T13:10:37.007Z,51.90
2018-05-11T13:11:43.403Z,51.80
2018-05-11T13:12:50.147Z,51.76
2018-05-11T13:13:56.929Z,51.69
2018-05-11T13:15:03.675Z,51.58
2018-05-11T13:16:10.490Z,51.41
2018-05-11T13:17:17.254Z,51.33
2018-05-11T13:18:24.011Z,51.10
2018-05-11T13:19:30.766Z,51.16
2018-05-11T13:20:37.651Z,51.20
2018-05-11T13:21:44.383Z,51.27
2018-05-11T13:22:51.111Z,51.18
2018-05-11T13:23:57.839Z,51.16
2018-05-11T13:25:04.603Z,51.07
2018-05-11T13:26:11.458Z,51.08
2018-05-11T13:27:18.158Z,51.03
2018-05-11T13:28:24.906Z,50.70
2018-05-11T13:29:31.683Z,50.59
2018-05-11T13:30:38.543Z,50.42
2018-05-11T13:31:45.257Z,50.36
2018-05-11T13:32:51.997Z,49.93
2018-05-11T13:33:58.842Z,49.53
2018-05-11T13:35:05.598Z,49.46
2018-05-11T13:36:12.375Z,49.25
2018-05-11T13:37:19.259Z,49.23
2018-05-11T13:38:26.024Z,49.51
2018-05-11T13:39:32.811Z,49.29
2018-05-11T13:40:39.678Z,49.14
2018-05-11T13:41:46.406Z,49.24
2018-05-11T13:42:53.170Z,49.25
2018-05-11T13:43:59.914Z,49.27
2018-05-11T13:45:06.670Z,49.41
2018-05-11T13:46:13.423Z,49.28
2018-05-11T13:47:20.190Z,49.17
2018-05-11T13:48:26.965Z,49.39
2018-05-11T13:49:33.719Z,49.57
2018-05-11T13:50:40.521Z,49.20
2018-05-11T13:51:47.273Z,49.23
2018-05-11T13:52:54.018Z,49.40
2018-05-11T13:54:00.794Z,49.46
2018-05-11T13:55:07.622Z,49.59
2018-05-11T13:56:14.438Z,49.57
2018-05-11T13:57:21.211Z,49.74
2018-05-11T13:58:27.934Z,49.75
2018-05-11T13:59:34.714Z,49.60
2018-05-11T14:00:41.463Z,49.28
2018-05-11T14:01:48.266Z,49.38
2018-05-11T14:02:55.038Z,49.35
2018-05-11T14:04:01.758Z,49.38
2018-05-11T14:05:08.555Z,49.43
2018-05-11T14:06:15.344Z,49.13
2018-05-11T14:07:22.091Z,48.92
2018-05-11T14:08:28.859Z,49.00
2018-05-11T14:09:35.573Z,49.17
2018-05-11T14:10:42.419Z,48.86
2018-05-11T14:11:49.162Z,48.84
2018-05-11T14:12:55.892Z,48.64
2018-05-11T14:14:02.647Z,48.88
2018-05-11T14:15:09.454Z,48.87
2018-05-11T14:16:16.169Z,48.96
2018-05-11T14:17:22.918Z,48.85
2018-05-11T14:18:29.686Z,49.21
2018-05-11T14:19:36.509Z,49.10
2018-05-11T14:20:43.284Z,49.41
2018-05-11T14:21:50.042Z,49.34